sensor_id;sensor_type;location;lat;lon;timestamp;temperature;humidity
43842;DHT22;29495;49.970;20.842;2022-12-15T00:02:05;-0.90;99.90
43842;DHT22;29495;49.970;20.842;2022-12-15T00:04:50;-0.90;99.90
43842;DHT22;29495;49.970;20.842;2022-12-15T00:07:34;-0.90;99.90
43842;DHT22;29495;49.970;20.842;2022-12-15T00:10:19;-1.00;99.90
43842;DHT22;29495;49.970;20.842;2022-12-15T00:13:10;-1.00;99.90
43842;DHT22;29495;49.970;20.842;2022-12-15T00:15:55;-1.00;99.90
43842;DHT22;29495;49.970;20.842;2022-12-15T00:18:39;-1.00;99.90
43842;DHT22;29495;49.970;20.842;2022-12-15T00:21:24;-1.10;99.90
43842;DHT22;29495;49.970;20.842;2022-12-15T00:24:08;-1.10;99.90
43842;DHT22;29495;49.970;20.842;2022-12-15T00:26:53;-1.00;99.90
43842;DHT22;29495;49.970;20.842;2022-12-15T00:29:38;-0.90;99.90
43842;DHT22;29495;49.970;20.842;2022-12-15T00:32:22;-0.90;99.90
43842;DHT22;29495;49.970;20.842;2022-12-15T00:35:07;-1.00;99.90
43842;DHT22;29495;49.970;20.842;2022-12-15T00:37:55;-1.00;99.90
43842;DHT22;29495;49.970;20.842;2022-12-15T00:40:39;-1.10;99.90
43842;DHT22;29495;49.970;20.842;2022-12-15T00:43:09;-1.00;99.90
43842;DHT22;29495;49.970;20.842;2022-12-15T00:45:39;-1.10;99.90
43842;DHT22;29495;49.970;20.842;2022-12-15T00:48:24;-1.10;99.90
43842;DHT22;29495;49.970;20.842;2022-12-15T00:50:50;-1.20;99.90
43842;DHT22;29495;49.970;20.842;2022-12-15T00:53:20;-1.20;99.90
43842;DHT22;29495;49.970;20.842;2022-12-15T00:56:05;-1.10;99.90
43842;DHT22;29495;49.970;20.842;2022-12-15T00:58:49;-1.10;99.90
43842;DHT22;29495;49.970;20.842;2022-12-15T01:01:34;-1.10;99.90
43842;DHT22;29495;49.970;20.842;2022-12-15T01:04:19;-1.10;99.90
43842;DHT22;29495;49.970;20.842;2022-12-15T01:07:04;-1.10;99.90
43842;DHT22;29495;49.970;20.842;2022-12-15T01:09:48;-1.10;99.90
43842;DHT22;29495;49.970;20.842;2022-12-15T01:12:33;-1.10;99.90
43842;DHT22;29495;49.970;20.842;2022-12-15T01:15:17;-1.10;99.90
43842;DHT22;29495;49.970;20.842;2022-12-15T01:18:02;-1.00;99.90
43842;DHT22;29495;49.970;20.842;2022-12-15T01:21:13;-1.10;99.90
43842;DHT22;29495;49.970;20.842;2022-12-15T01:23:41;-1.10;99.90
43842;DHT22;29495;49.970;20.842;2022-12-15T01:26:09;-1.20;99.90
43842;DHT22;29495;49.970;20.842;2022-12-15T01:28:36;-1.20;99.90
43842;DHT22;29495;49.970;20.842;2022-12-15T01:31:08;-1.10;99.90
43842;DHT22;29495;49.970;20.842;2022-12-15T01:33:36;-1.10;99.90
43842;DHT22;29495;49.970;20.842;2022-12-15T01:36:03;-0.90;99.90
43842;DHT22;29495;49.970;20.842;2022-12-15T01:38:29;-0.90;99.90
43842;DHT22;29495;49.970;20.842;2022-12-15T01:41:01;-0.80;99.90
43842;DHT22;29495;49.970;20.842;2022-12-15T01:43:31;-0.70;99.90
43842;DHT22;29495;49.970;20.842;2022-12-15T01:46:18;-0.80;99.90
43842;DHT22;29495;49.970;20.842;2022-12-15T01:51:48;-0.70;99.90
43842;DHT22;29495;49.970;20.842;2022-12-15T01:57:02;-0.70;99.90
43842;DHT22;29495;49.970;20.842;2022-12-15T01:59:36;-0.70;99.90
43842;DHT22;29495;49.970;20.842;2022-12-15T02:02:04;-0.70;99.90
43842;DHT22;29495;49.970;20.842;2022-12-15T02:04:38;-0.80;99.90
43842;DHT22;29495;49.970;20.842;2022-12-15T02:07:51;-0.70;99.90
43842;DHT22;29495;49.970;20.842;2022-12-15T02:14:02;-0.60;99.90
43842;DHT22;29495;49.970;20.842;2022-12-15T02:19:31;-0.70;99.90
43842;DHT22;29495;49.970;20.842;2022-12-15T02:24:58;-0.50;99.90
43842;DHT22;29495;49.970;20.842;2022-12-15T02:31:32;-0.60;99.90
43842;DHT22;29495;49.970;20.842;2022-12-15T02:40:18;-0.50;99.90
43842;DHT22;29495;49.970;20.842;2022-12-15T02:43:39;-0.50;99.90
43842;DHT22;29495;49.970;20.842;2022-12-15T02:47:30;-0.60;99.90
43842;DHT22;29495;49.970;20.842;2022-12-15T02:55:52;-0.50;99.90
43842;DHT22;29495;49.970;20.842;2022-12-15T03:03:51;-0.60;99.90
43842;DHT22;29495;49.970;20.842;2022-12-15T03:06:18;-0.60;99.90
43842;DHT22;29495;49.970;20.842;2022-12-15T03:08:45;-0.50;99.90
43842;DHT22;29495;49.970;20.842;2022-12-15T03:11:11;-0.50;99.90
43842;DHT22;29495;49.970;20.842;2022-12-15T03:13:37;-0.50;99.90
43842;DHT22;29495;49.970;20.842;2022-12-15T03:16:03;-0.40;99.90
43842;DHT22;29495;49.970;20.842;2022-12-15T03:18:29;-0.40;99.90
43842;DHT22;29495;49.970;20.842;2022-12-15T03:20:58;-0.40;99.90
43842;DHT22;29495;49.970;20.842;2022-12-15T03:23:26;-0.30;99.90
43842;DHT22;29495;49.970;20.842;2022-12-15T03:25:53;-0.30;99.90
43842;DHT22;29495;49.970;20.842;2022-12-15T03:28:20;-0.30;99.90
43842;DHT22;29495;49.970;20.842;2022-12-15T03:30:49;-0.30;99.90
43842;DHT22;29495;49.970;20.842;2022-12-15T03:33:16;-0.30;99.90
43842;DHT22;29495;49.970;20.842;2022-12-15T03:35:42;-0.30;99.90
43842;DHT22;29495;49.970;20.842;2022-12-15T03:38:08;-0.30;99.90
43842;DHT22;29495;49.970;20.842;2022-12-15T03:40:34;-0.20;99.90
43842;DHT22;29495;49.970;20.842;2022-12-15T03:43:00;-0.10;99.90
43842;DHT22;29495;49.970;20.842;2022-12-15T03:45:27;-0.10;99.90
43842;DHT22;29495;49.970;20.842;2022-12-15T03:47:56;-0.10;99.90
43842;DHT22;29495;49.970;20.842;2022-12-15T03:50:32;-0.10;99.90
43842;DHT22;29495;49.970;20.842;2022-12-15T03:53:26;-0.10;99.90
43842;DHT22;29495;49.970;20.842;2022-12-15T03:56:30;0.00;99.90
43842;DHT22;29495;49.970;20.842;2022-12-15T03:59:24;-0.10;99.90
43842;DHT22;29495;49.970;20.842;2022-12-15T04:02:59;-0.10;99.90
43842;DHT22;29495;49.970;20.842;2022-12-15T04:06:06;0.00;99.90
43842;DHT22;29495;49.970;20.842;2022-12-15T04:08:42;0.00;99.90
43842;DHT22;29495;49.970;20.842;2022-12-15T04:11:24;-0.10;99.90
43842;DHT22;29495;49.970;20.842;2022-12-15T04:17:31;-0.10;99.90
43842;DHT22;29495;49.970;20.842;2022-12-15T04:19:58;-0.10;99.90
43842;DHT22;29495;49.970;20.842;2022-12-15T04:25:38;-0.20;99.90
43842;DHT22;29495;49.970;20.842;2022-12-15T04:28:22;-0.10;99.90
43842;DHT22;29495;49.970;20.842;2022-12-15T04:31:12;-0.10;99.90
43842;DHT22;29495;49.970;20.842;2022-12-15T04:34:01;-0.10;99.90
43842;DHT22;29495;49.970;20.842;2022-12-15T04:36:49;0.00;99.90
43842;DHT22;29495;49.970;20.842;2022-12-15T04:39:36;-0.10;99.90
43842;DHT22;29495;49.970;20.842;2022-12-15T04:42:22;0.00;99.90
43842;DHT22;29495;49.970;20.842;2022-12-15T04:45:09;0.00;99.90
43842;DHT22;29495;49.970;20.842;2022-12-15T04:47:55;-0.10;99.90
43842;DHT22;29495;49.970;20.842;2022-12-15T04:50:39;-0.10;99.90
43842;DHT22;29495;49.970;20.842;2022-12-15T04:53:24;-0.10;99.90
43842;DHT22;29495;49.970;20.842;2022-12-15T04:56:13;-0.10;99.90
43842;DHT22;29495;49.970;20.842;2022-12-15T04:58:58;-0.10;99.90
43842;DHT22;29495;49.970;20.842;2022-12-15T05:01:43;-0.10;99.90
43842;DHT22;29495;49.970;20.842;2022-12-15T05:04:31;0.00;99.90
43842;DHT22;29495;49.970;20.842;2022-12-15T05:07:15;0.00;99.90
43842;DHT22;29495;49.970;20.842;2022-12-15T05:10:00;0.00;99.90
43842;DHT22;29495;49.970;20.842;2022-12-15T05:12:45;0.00;99.90
43842;DHT22;29495;49.970;20.842;2022-12-15T05:15:31;0.00;99.90
43842;DHT22;29495;49.970;20.842;2022-12-15T05:18:16;0.00;99.90
43842;DHT22;29495;49.970;20.842;2022-12-15T05:21:00;-0.10;99.90
43842;DHT22;29495;49.970;20.842;2022-12-15T05:23:45;-0.10;99.90
43842;DHT22;29495;49.970;20.842;2022-12-15T05:26:29;0.00;99.90
43842;DHT22;29495;49.970;20.842;2022-12-15T05:29:14;-0.10;99.90
43842;DHT22;29495;49.970;20.842;2022-12-15T05:31:58;-0.10;99.90
43842;DHT22;29495;49.970;20.842;2022-12-15T05:34:28;-0.10;99.90
43842;DHT22;29495;49.970;20.842;2022-12-15T05:37:00;-0.10;99.90
43842;DHT22;29495;49.970;20.842;2022-12-15T05:39:27;-0.20;99.90
43842;DHT22;29495;49.970;20.842;2022-12-15T05:42:05;-0.20;99.90
43842;DHT22;29495;49.970;20.842;2022-12-15T05:44:41;-0.30;99.90
43842;DHT22;29495;49.970;20.842;2022-12-15T05:47:17;-0.30;99.90
43842;DHT22;29495;49.970;20.842;2022-12-15T05:49:53;-0.30;99.90
43842;DHT22;29495;49.970;20.842;2022-12-15T05:52:27;-0.40;99.90
43842;DHT22;29495;49.970;20.842;2022-12-15T05:54:53;-0.40;99.90
43842;DHT22;29495;49.970;20.842;2022-12-15T05:57:20;-0.50;99.90
43842;DHT22;29495;49.970;20.842;2022-12-15T05:59:55;-0.50;99.90
43842;DHT22;29495;49.970;20.842;2022-12-15T06:02:49;-0.40;99.90
43842;DHT22;29495;49.970;20.842;2022-12-15T06:05:48;-0.50;99.90
43842;DHT22;29495;49.970;20.842;2022-12-15T06:08:41;-0.40;99.90
43842;DHT22;29495;49.970;20.842;2022-12-15T06:12:07;-0.50;99.90
43842;DHT22;29495;49.970;20.842;2022-12-15T06:21:21;-0.50;99.90
43842;DHT22;29495;49.970;20.842;2022-12-15T06:24:07;-0.50;99.90
43842;DHT22;29495;49.970;20.842;2022-12-15T06:27:18;-0.50;99.90
43842;DHT22;29495;49.970;20.842;2022-12-15T06:30:33;-0.50;99.90
43842;DHT22;29495;49.970;20.842;2022-12-15T06:33:15;-0.50;99.90
43842;DHT22;29495;49.970;20.842;2022-12-15T06:35:42;-0.50;99.90
43842;DHT22;29495;49.970;20.842;2022-12-15T06:38:08;-0.50;99.90
43842;DHT22;29495;49.970;20.842;2022-12-15T06:40:34;-0.50;99.90
43842;DHT22;29495;49.970;20.842;2022-12-15T06:43:00;-0.40;99.90
43842;DHT22;29495;49.970;20.842;2022-12-15T06:49:58;-0.40;99.90
43842;DHT22;29495;49.970;20.842;2022-12-15T06:56:29;-0.40;99.90
43842;DHT22;29495;49.970;20.842;2022-12-15T06:58:56;-0.50;99.90
43842;DHT22;29495;49.970;20.842;2022-12-15T07:01:26;-0.40;99.90
43842;DHT22;29495;49.970;20.842;2022-12-15T07:03:53;-0.40;99.90
43842;DHT22;29495;49.970;20.842;2022-12-15T07:06:19;-0.50;99.90
43842;DHT22;29495;49.970;20.842;2022-12-15T07:08:52;-0.40;99.90
43842;DHT22;29495;49.970;20.842;2022-12-15T07:11:25;-0.40;99.90
43842;DHT22;29495;49.970;20.842;2022-12-15T07:13:53;-0.40;99.90
43842;DHT22;29495;49.970;20.842;2022-12-15T07:16:22;-0.50;99.90
43842;DHT22;29495;49.970;20.842;2022-12-15T07:18:49;-0.40;99.90
43842;DHT22;29495;49.970;20.842;2022-12-15T07:21:16;-0.40;99.90
43842;DHT22;29495;49.970;20.842;2022-12-15T07:23:56;-0.40;99.90
43842;DHT22;29495;49.970;20.842;2022-12-15T07:32:59;-0.40;99.90
43842;DHT22;29495;49.970;20.842;2022-12-15T07:35:28;-0.40;99.90
43842;DHT22;29495;49.970;20.842;2022-12-15T07:37:56;-0.40;99.90
43842;DHT22;29495;49.970;20.842;2022-12-15T07:40:48;-0.40;99.90
43842;DHT22;29495;49.970;20.842;2022-12-15T07:43:41;-0.30;99.90
43842;DHT22;29495;49.970;20.842;2022-12-15T07:46:12;-0.40;99.90
43842;DHT22;29495;49.970;20.842;2022-12-15T07:48:44;-0.30;99.90
43842;DHT22;29495;49.970;20.842;2022-12-15T07:51:16;-0.30;99.90
43842;DHT22;29495;49.970;20.842;2022-12-15T07:54:33;-0.20;99.90
43842;DHT22;29495;49.970;20.842;2022-12-15T07:57:20;-0.10;99.90
43842;DHT22;29495;49.970;20.842;2022-12-15T07:59:55;-0.10;99.90
43842;DHT22;29495;49.970;20.842;2022-12-15T08:02:44;0.00;99.90
43842;DHT22;29495;49.970;20.842;2022-12-15T08:05:27;0.10;99.90
43842;DHT22;29495;49.970;20.842;2022-12-15T08:07:57;0.10;99.90
43842;DHT22;29495;49.970;20.842;2022-12-15T08:10:29;0.10;99.90
43842;DHT22;29495;49.970;20.842;2022-12-15T08:12:58;0.20;99.90
43842;DHT22;29495;49.970;20.842;2022-12-15T08:15:30;0.20;99.90
43842;DHT22;29495;49.970;20.842;2022-12-15T08:17:56;0.20;99.90
43842;DHT22;29495;49.970;20.842;2022-12-15T08:20:22;0.20;99.90
43842;DHT22;29495;49.970;20.842;2022-12-15T08:22:53;0.30;99.90
43842;DHT22;29495;49.970;20.842;2022-12-15T08:25:25;0.20;99.90
43842;DHT22;29495;49.970;20.842;2022-12-15T08:27:54;0.30;99.90
43842;DHT22;29495;49.970;20.842;2022-12-15T08:30:23;0.30;99.90
43842;DHT22;29495;49.970;20.842;2022-12-15T08:33:07;0.40;99.90
43842;DHT22;29495;49.970;20.842;2022-12-15T08:36:13;0.30;99.90
43842;DHT22;29495;49.970;20.842;2022-12-15T08:38:40;0.30;99.90
43842;DHT22;29495;49.970;20.842;2022-12-15T08:41:08;0.30;99.90
43842;DHT22;29495;49.970;20.842;2022-12-15T08:43:35;0.50;99.90
43842;DHT22;29495;49.970;20.842;2022-12-15T08:46:03;0.50;99.90
43842;DHT22;29495;49.970;20.842;2022-12-15T08:48:29;0.50;99.90
43842;DHT22;29495;49.970;20.842;2022-12-15T08:50:56;0.60;99.90
43842;DHT22;29495;49.970;20.842;2022-12-15T08:53:25;0.60;99.90
43842;DHT22;29495;49.970;20.842;2022-12-15T08:56:08;0.70;99.90
43842;DHT22;29495;49.970;20.842;2022-12-15T08:58:43;0.50;99.90
43842;DHT22;29495;49.970;20.842;2022-12-15T09:01:31;0.60;99.90
43842;DHT22;29495;49.970;20.842;2022-12-15T09:04:09;0.70;99.90
43842;DHT22;29495;49.970;20.842;2022-12-15T09:07:18;0.70;99.90
43842;DHT22;29495;49.970;20.842;2022-12-15T09:10:13;0.70;99.90
43842;DHT22;29495;49.970;20.842;2022-12-15T09:16:20;0.50;99.90
43842;DHT22;29495;49.970;20.842;2022-12-15T09:19:42;0.60;99.90
43842;DHT22;29495;49.970;20.842;2022-12-15T09:22:48;0.60;99.90
43842;DHT22;29495;49.970;20.842;2022-12-15T09:25:40;0.50;99.90
43842;DHT22;29495;49.970;20.842;2022-12-15T09:28:13;0.40;99.90
43842;DHT22;29495;49.970;20.842;2022-12-15T09:30:52;0.40;99.90
43842;DHT22;29495;49.970;20.842;2022-12-15T09:33:40;0.40;99.90
43842;DHT22;29495;49.970;20.842;2022-12-15T09:36:25;0.50;99.90
43842;DHT22;29495;49.970;20.842;2022-12-15T09:39:44;0.50;99.90
43842;DHT22;29495;49.970;20.842;2022-12-15T09:42:32;0.40;99.90
43842;DHT22;29495;49.970;20.842;2022-12-15T09:45:18;0.50;99.90
43842;DHT22;29495;49.970;20.842;2022-12-15T09:48:05;0.60;99.90
43842;DHT22;29495;49.970;20.842;2022-12-15T09:50:40;0.60;99.90
43842;DHT22;29495;49.970;20.842;2022-12-15T09:53:14;0.50;99.90
43842;DHT22;29495;49.970;20.842;2022-12-15T09:55:53;0.50;99.90
43842;DHT22;29495;49.970;20.842;2022-12-15T10:08:08;0.60;99.90
43842;DHT22;29495;49.970;20.842;2022-12-15T10:13:50;0.80;99.90
43842;DHT22;29495;49.970;20.842;2022-12-15T10:16:43;0.70;99.90
43842;DHT22;29495;49.970;20.842;2022-12-15T10:22:13;0.80;99.90
43842;DHT22;29495;49.970;20.842;2022-12-15T10:24:49;0.70;97.30
43842;DHT22;29495;49.970;20.842;2022-12-15T10:33:10;0.70;99.90
43842;DHT22;29495;49.970;20.842;2022-12-15T10:35:41;0.80;99.90
43842;DHT22;29495;49.970;20.842;2022-12-15T10:38:42;0.60;96.60
43842;DHT22;29495;49.970;20.842;2022-12-15T10:41:23;0.60;99.60
43842;DHT22;29495;49.970;20.842;2022-12-15T10:43:56;0.70;99.90
43842;DHT22;29495;49.970;20.842;2022-12-15T10:46:25;0.70;99.90
43842;DHT22;29495;49.970;20.842;2022-12-15T10:48:57;0.50;95.30
43842;DHT22;29495;49.970;20.842;2022-12-15T10:51:52;0.60;98.40
43842;DHT22;29495;49.970;20.842;2022-12-15T10:54:22;0.80;99.00
43842;DHT22;29495;49.970;20.842;2022-12-15T10:56:51;0.80;97.10
43842;DHT22;29495;49.970;20.842;2022-12-15T11:01:47;0.80;96.90
43842;DHT22;29495;49.970;20.842;2022-12-15T11:04:29;0.80;97.20
43842;DHT22;29495;49.970;20.842;2022-12-15T11:07:12;0.80;93.70
43842;DHT22;29495;49.970;20.842;2022-12-15T11:09:58;1.00;95.50
43842;DHT22;29495;49.970;20.842;2022-12-15T11:12:31;0.80;94.00
43842;DHT22;29495;49.970;20.842;2022-12-15T11:18:08;1.00;91.50
43842;DHT22;29495;49.970;20.842;2022-12-15T11:24:18;1.20;90.90
43842;DHT22;29495;49.970;20.842;2022-12-15T11:27:00;1.10;91.90
43842;DHT22;29495;49.970;20.842;2022-12-15T11:32:22;1.10;86.40
43842;DHT22;29495;49.970;20.842;2022-12-15T11:34:51;1.10;87.00
43842;DHT22;29495;49.970;20.842;2022-12-15T11:40:33;1.20;87.20
43842;DHT22;29495;49.970;20.842;2022-12-15T11:43:19;1.00;85.10
43842;DHT22;29495;49.970;20.842;2022-12-15T11:46:06;1.00;88.80
43842;DHT22;29495;49.970;20.842;2022-12-15T11:57:14;1.20;85.30
43842;DHT22;29495;49.970;20.842;2022-12-15T12:00:04;1.20;84.20
43842;DHT22;29495;49.970;20.842;2022-12-15T12:02:50;1.00;82.00
43842;DHT22;29495;49.970;20.842;2022-12-15T12:05:45;1.00;88.00
43842;DHT22;29495;49.970;20.842;2022-12-15T12:09:35;1.00;90.80
43842;DHT22;29495;49.970;20.842;2022-12-15T12:20:02;0.70;90.70
43842;DHT22;29495;49.970;20.842;2022-12-15T12:22:42;0.70;92.90
43842;DHT22;29495;49.970;20.842;2022-12-15T12:25:24;0.60;93.30
43842;DHT22;29495;49.970;20.842;2022-12-15T12:28:04;0.60;94.20
43842;DHT22;29495;49.970;20.842;2022-12-15T12:30:47;0.60;94.80
43842;DHT22;29495;49.970;20.842;2022-12-15T12:33:22;0.60;93.40
43842;DHT22;29495;49.970;20.842;2022-12-15T12:35:53;0.70;94.40
43842;DHT22;29495;49.970;20.842;2022-12-15T12:38:29;0.70;93.60
43842;DHT22;29495;49.970;20.842;2022-12-15T12:41:08;0.60;93.10
43842;DHT22;29495;49.970;20.842;2022-12-15T12:43:42;0.50;92.30
43842;DHT22;29495;49.970;20.842;2022-12-15T12:49:15;0.50;91.80
43842;DHT22;29495;49.970;20.842;2022-12-15T12:51:41;0.40;88.10
43842;DHT22;29495;49.970;20.842;2022-12-15T12:57:00;0.50;95.60
43842;DHT22;29495;49.970;20.842;2022-12-15T13:01:57;0.50;90.60
43842;DHT22;29495;49.970;20.842;2022-12-15T13:04:40;0.40;89.20
43842;DHT22;29495;49.970;20.842;2022-12-15T13:07:48;0.50;89.60
43842;DHT22;29495;49.970;20.842;2022-12-15T13:10:20;0.40;91.20
43842;DHT22;29495;49.970;20.842;2022-12-15T13:12:56;0.30;91.20
43842;DHT22;29495;49.970;20.842;2022-12-15T13:18:10;0.50;92.70
43842;DHT22;29495;49.970;20.842;2022-12-15T13:20:38;0.30;89.50
43842;DHT22;29495;49.970;20.842;2022-12-15T13:39:30;0.00;97.30
43842;DHT22;29495;49.970;20.842;2022-12-15T13:47:08;-0.20;94.90
43842;DHT22;29495;49.970;20.842;2022-12-15T13:50:15;-0.20;97.90
43842;DHT22;29495;49.970;20.842;2022-12-15T13:53:12;0.00;96.80
43842;DHT22;29495;49.970;20.842;2022-12-15T13:55:56;-0.10;92.20
43842;DHT22;29495;49.970;20.842;2022-12-15T13:58:52;-0.10;92.10
43842;DHT22;29495;49.970;20.842;2022-12-15T14:11:22;-0.20;96.60
43842;DHT22;29495;49.970;20.842;2022-12-15T14:14:18;-0.20;95.80
43842;DHT22;29495;49.970;20.842;2022-12-15T14:17:01;-0.10;94.00
43842;DHT22;29495;49.970;20.842;2022-12-15T14:19:47;-0.10;94.80
43842;DHT22;29495;49.970;20.842;2022-12-15T14:22:40;-0.10;95.00
43842;DHT22;29495;49.970;20.842;2022-12-15T14:26:07;-0.10;91.70
43842;DHT22;29495;49.970;20.842;2022-12-15T14:29:24;-0.10;90.60
43842;DHT22;29495;49.970;20.842;2022-12-15T14:31:56;0.00;91.40
43842;DHT22;29495;49.970;20.842;2022-12-15T14:35:15;-0.10;89.50
43842;DHT22;29495;49.970;20.842;2022-12-15T14:37:58;0.00;91.60
43842;DHT22;29495;49.970;20.842;2022-12-15T14:44:15;0.00;88.60
43842;DHT22;29495;49.970;20.842;2022-12-15T14:47:25;0.00;89.60
43842;DHT22;29495;49.970;20.842;2022-12-15T14:50:23;-0.10;82.30
43842;DHT22;29495;49.970;20.842;2022-12-15T14:53:14;-0.10;86.50
43842;DHT22;29495;49.970;20.842;2022-12-15T14:55:44;-0.10;87.30
43842;DHT22;29495;49.970;20.842;2022-12-15T14:58:40;-0.10;84.20
43842;DHT22;29495;49.970;20.842;2022-12-15T15:07:12;0.10;88.30
43842;DHT22;29495;49.970;20.842;2022-12-15T15:10:27;0.10;86.40
43842;DHT22;29495;49.970;20.842;2022-12-15T15:13:27;0.00;84.60
43842;DHT22;29495;49.970;20.842;2022-12-15T15:23:27;-0.10;90.90
43842;DHT22;29495;49.970;20.842;2022-12-15T15:28:59;-0.10;90.10
43842;DHT22;29495;49.970;20.842;2022-12-15T15:32:21;-0.10;87.30
43842;DHT22;29495;49.970;20.842;2022-12-15T15:35:35;-0.10;85.40
43842;DHT22;29495;49.970;20.842;2022-12-15T15:38:50;-0.20;90.10
43842;DHT22;29495;49.970;20.842;2022-12-15T15:41:32;-0.20;88.50
43842;DHT22;29495;49.970;20.842;2022-12-15T15:47:33;-0.30;92.80
43842;DHT22;29495;49.970;20.842;2022-12-15T15:50:20;-0.30;94.90
43842;DHT22;29495;49.970;20.842;2022-12-15T15:53:11;-0.30;91.10
43842;DHT22;29495;49.970;20.842;2022-12-15T15:56:15;-0.20;94.10
43842;DHT22;29495;49.970;20.842;2022-12-15T15:59:18;-0.20;91.40
43842;DHT22;29495;49.970;20.842;2022-12-15T16:02:08;-0.20;92.90
43842;DHT22;29495;49.970;20.842;2022-12-15T16:05:09;-0.10;93.10
43842;DHT22;29495;49.970;20.842;2022-12-15T16:07:55;-0.20;91.10
43842;DHT22;29495;49.970;20.842;2022-12-15T16:10:50;-0.20;92.10
43842;DHT22;29495;49.970;20.842;2022-12-15T16:13:25;-0.10;92.80
43842;DHT22;29495;49.970;20.842;2022-12-15T16:23:30;-0.20;92.20
43842;DHT22;29495;49.970;20.842;2022-12-15T16:33:16;-0.40;92.70
43842;DHT22;29495;49.970;20.842;2022-12-15T16:36:30;-0.40;92.50
43842;DHT22;29495;49.970;20.842;2022-12-15T16:39:48;-0.30;95.20
43842;DHT22;29495;49.970;20.842;2022-12-15T16:42:55;-0.30;96.90
43842;DHT22;29495;49.970;20.842;2022-12-15T16:45:36;-0.20;97.30
43842;DHT22;29495;49.970;20.842;2022-12-15T16:49:01;-0.10;96.30
43842;DHT22;29495;49.970;20.842;2022-12-15T16:51:41;-0.30;94.50
43842;DHT22;29495;49.970;20.842;2022-12-15T16:54:52;-0.20;97.20
43842;DHT22;29495;49.970;20.842;2022-12-15T16:57:57;-0.10;94.60
43842;DHT22;29495;49.970;20.842;2022-12-15T17:01:36;-0.30;91.50
43842;DHT22;29495;49.970;20.842;2022-12-15T17:04:48;-0.40;94.90
43842;DHT22;29495;49.970;20.842;2022-12-15T17:08:05;-0.40;92.60
43842;DHT22;29495;49.970;20.842;2022-12-15T17:10:58;-0.40;92.50
43842;DHT22;29495;49.970;20.842;2022-12-15T17:13:46;-0.50;91.80
43842;DHT22;29495;49.970;20.842;2022-12-15T17:16:54;-0.50;93.50
43842;DHT22;29495;49.970;20.842;2022-12-15T17:20:17;-0.50;93.60
43842;DHT22;29495;49.970;20.842;2022-12-15T17:23:41;-0.60;92.50
43842;DHT22;29495;49.970;20.842;2022-12-15T17:27:25;-0.70;96.10
43842;DHT22;29495;49.970;20.842;2022-12-15T17:30:44;-0.60;98.20
43842;DHT22;29495;49.970;20.842;2022-12-15T17:33:36;-0.60;97.20
43842;DHT22;29495;49.970;20.842;2022-12-15T17:36:46;-0.70;98.40
43842;DHT22;29495;49.970;20.842;2022-12-15T17:39:53;-0.80;98.20
43842;DHT22;29495;49.970;20.842;2022-12-15T17:43:09;-0.80;99.90
43842;DHT22;29495;49.970;20.842;2022-12-15T17:45:49;-0.80;97.40
43842;DHT22;29495;49.970;20.842;2022-12-15T17:49:25;-0.80;99.50
43842;DHT22;29495;49.970;20.842;2022-12-15T17:52:46;-0.80;97.70
43842;DHT22;29495;49.970;20.842;2022-12-15T17:55:44;-0.70;94.60
43842;DHT22;29495;49.970;20.842;2022-12-15T17:59:11;-0.70;97.90
43842;DHT22;29495;49.970;20.842;2022-12-15T18:11:13;-0.80;94.10
43842;DHT22;29495;49.970;20.842;2022-12-15T19:07:23;-1.00;77.50
43842;DHT22;29495;49.970;20.842;2022-12-15T19:10:33;-1.00;77.70
43842;DHT22;29495;49.970;20.842;2022-12-15T19:14:20;-0.90;79.90
43842;DHT22;29495;49.970;20.842;2022-12-15T19:17:57;-0.70;79.80
43842;DHT22;29495;49.970;20.842;2022-12-15T19:25:52;-0.70;80.70
43842;DHT22;29495;49.970;20.842;2022-12-15T19:33:44;-0.50;73.30
43842;DHT22;29495;49.970;20.842;2022-12-15T19:37:38;-0.50;68.50
43842;DHT22;29495;49.970;20.842;2022-12-15T19:40:32;-0.50;70.70
43842;DHT22;29495;49.970;20.842;2022-12-15T19:43:35;-0.50;62.60
43842;DHT22;29495;49.970;20.842;2022-12-15T19:46:27;-0.60;63.60
43842;DHT22;29495;49.970;20.842;2022-12-15T19:49:39;-0.60;68.90
43842;DHT22;29495;49.970;20.842;2022-12-15T19:52:17;-0.60;65.30
43842;DHT22;29495;49.970;20.842;2022-12-15T20:00:00;-0.60;67.80
43842;DHT22;29495;49.970;20.842;2022-12-15T20:07:37;-0.50;69.20
43842;DHT22;29495;49.970;20.842;2022-12-15T20:10:16;-0.50;62.80
43842;DHT22;29495;49.970;20.842;2022-12-15T20:16:09;-0.50;67.20
43842;DHT22;29495;49.970;20.842;2022-12-15T20:19:11;-0.50;63.40
43842;DHT22;29495;49.970;20.842;2022-12-15T20:27:22;-0.60;65.40
43842;DHT22;29495;49.970;20.842;2022-12-15T20:43:45;-0.80;73.80
43842;DHT22;29495;49.970;20.842;2022-12-15T20:50:40;-0.90;81.00
43842;DHT22;29495;49.970;20.842;2022-12-15T20:53:36;-0.80;83.60
43842;DHT22;29495;49.970;20.842;2022-12-15T20:56:42;-0.90;83.10
43842;DHT22;29495;49.970;20.842;2022-12-15T20:59:15;-0.90;86.90
43842;DHT22;29495;49.970;20.842;2022-12-15T21:01:44;-0.90;84.80
43842;DHT22;29495;49.970;20.842;2022-12-15T21:04:36;-0.80;89.00
43842;DHT22;29495;49.970;20.842;2022-12-15T21:07:08;-0.80;88.60
43842;DHT22;29495;49.970;20.842;2022-12-15T21:09:43;-0.80;87.50
43842;DHT22;29495;49.970;20.842;2022-12-15T21:12:22;-0.80;89.00
43842;DHT22;29495;49.970;20.842;2022-12-15T21:14:51;-0.70;87.00
43842;DHT22;29495;49.970;20.842;2022-12-15T21:17:31;-0.80;83.60
43842;DHT22;29495;49.970;20.842;2022-12-15T21:20:07;-0.80;88.30
43842;DHT22;29495;49.970;20.842;2022-12-15T21:27:36;-0.60;90.70
43842;DHT22;29495;49.970;20.842;2022-12-15T21:34:58;-0.60;85.60
43842;DHT22;29495;49.970;20.842;2022-12-15T21:42:10;-0.70;92.60
43842;DHT22;29495;49.970;20.842;2022-12-15T21:45:18;-0.80;93.80
43842;DHT22;29495;49.970;20.842;2022-12-15T21:52:35;-0.80;96.40
43842;DHT22;29495;49.970;20.842;2022-12-15T21:55:19;-0.70;97.40
43842;DHT22;29495;49.970;20.842;2022-12-15T21:58:19;-0.70;99.10
43842;DHT22;29495;49.970;20.842;2022-12-15T22:00:58;-0.80;99.90
43842;DHT22;29495;49.970;20.842;2022-12-15T22:03:29;-0.70;99.90
43842;DHT22;29495;49.970;20.842;2022-12-15T22:05:57;-0.80;99.90
43842;DHT22;29495;49.970;20.842;2022-12-15T22:08:39;-0.70;99.90
43842;DHT22;29495;49.970;20.842;2022-12-15T22:11:17;-0.80;99.90
43842;DHT22;29495;49.970;20.842;2022-12-15T22:13:46;-0.80;99.90
43842;DHT22;29495;49.970;20.842;2022-12-15T22:16:13;-0.80;99.90
43842;DHT22;29495;49.970;20.842;2022-12-15T22:18:42;-0.80;99.90
43842;DHT22;29495;49.970;20.842;2022-12-15T22:21:08;-0.90;99.90
43842;DHT22;29495;49.970;20.842;2022-12-15T22:23:34;-0.80;99.90
43842;DHT22;29495;49.970;20.842;2022-12-15T22:26:00;-0.80;99.90
43842;DHT22;29495;49.970;20.842;2022-12-15T22:28:27;-0.90;99.90
43842;DHT22;29495;49.970;20.842;2022-12-15T22:30:54;-1.00;99.90
43842;DHT22;29495;49.970;20.842;2022-12-15T22:33:24;-1.00;99.90
43842;DHT22;29495;49.970;20.842;2022-12-15T22:35:52;-1.10;99.90